Time;durP1;ratioP1;P1;durP2;ratioP2;P2;SDS_P1;SDS_P2;PMS_P1;PMS_P2;Temp;Humidity;BMP_temperature;BMP_pressure;BME280_temperature;BME280_humidity;BME280_pressure;Samples;Min_cycle;Max_cycle;Signal;HPM_P1;HPM_P2
2023/01/11 00:01:16;;;;;;;22.95;9.07;;;;;;;;;;5074621;28;20040;-73
2023/01/11 00:03:42;;;;;;;15.20;8.35;;;;;;;;;;5074019;28;20484;-74
2023/01/11 00:06:09;;;;;;;16.85;8.90;;;;;;;;;;5074050;28;20027;-73
2023/01/11 00:08:35;;;;;;;17.92;8.95;;;;;;;;;;5073520;28;20028;-74
2023/01/11 00:11:01;;;;;;;13.45;8.00;;;;;;;;;;5073849;28;20101;-74
2023/01/11 00:13:27;;;;;;;16.17;8.50;;;;;;;;;;5074132;28;20432;-74
2023/01/11 00:15:53;;;;;;;18.40;8.82;;;;;;;;;;5074077;28;20108;-74
2023/01/11 00:18:19;;;;;;;13.88;6.57;;;;;;;;;;5073641;28;20063;-74
2023/01/11 00:20:46;;;;;;;16.08;6.47;;;;;;;;;;5073825;28;20402;-74
2023/01/11 00:23:12;;;;;;;12.57;6.38;;;;;;;;;;5066391;28;20039;-74
2023/01/11 00:25:38;;;;;;;17.27;7.32;;;;;;;;;;5056700;28;20481;-73
2023/01/11 00:28:05;;;;;;;16.27;7.20;;;;;;;;;;5056520;28;20071;-74
2023/01/11 00:30:31;;;;;;;12.43;6.70;;;;;;;;;;5065129;28;20103;-74
2023/01/11 00:32:58;;;;;;;16.58;8.20;;;;;;;;;;5060167;28;20021;-74
2023/01/11 00:35:24;;;;;;;19.92;7.70;;;;;;;;;;5073488;28;20103;-73
2023/01/11 00:37:52;;;;;;;12.90;7.07;;;;;;;;;;5073230;28;20257;-74
2023/01/11 00:40:18;;;;;;;12.32;6.63;;;;;;;;;;5073262;28;20026;-73
2023/01/11 00:48:13;;;;;;;16.70;6.95;;;;;;;;;;5055342;28;20392;-74
2023/01/11 00:50:40;;;;;;;15.68;8.23;;;;;;;;;;5045797;28;20021;-73
2023/01/11 00:53:06;;;;;;;14.75;7.50;;;;;;;;;;5068534;28;20052;-72
2023/01/11 00:55:32;;;;;;;15.93;7.38;;;;;;;;;;5053223;28;20072;-73
2023/01/11 00:57:58;;;;;;;17.30;7.53;;;;;;;;;;5053098;28;20025;-74
2023/01/11 01:00:25;;;;;;;17.40;8.02;;;;;;;;;;5035299;28;20124;-74
2023/01/11 01:02:51;;;;;;;13.85;7.55;;;;;;;;;;5052978;28;20108;-74
2023/01/11 01:05:17;;;;;;;12.80;7.57;;;;;;;;;;5052993;28;20017;-73
2023/01/11 01:07:44;;;;;;;17.23;7.85;;;;;;;;;;5060736;28;20023;-74
2023/01/11 01:10:11;;;;;;;13.80;8.05;;;;;;;;;;5073529;28;20041;-74
2023/01/11 01:15:22;;;;;;;18.05;8.07;;;;;;;;;;5068291;28;20047;-74
2023/01/11 01:17:48;;;;;;;13.95;7.15;;;;;;;;;;5044455;28;20038;-72
2023/01/11 01:20:15;;;;;;;11.35;6.57;;;;;;;;;;5052986;28;20056;-73
2023/01/11 01:22:41;;;;;;;14.10;6.72;;;;;;;;;;5080431;28;20032;-75
2023/01/11 01:25:08;;;;;;;17.95;7.32;;;;;;;;;;5077987;28;20037;-75
2023/01/11 01:27:34;;;;;;;17.02;6.38;;;;;;;;;;5081389;28;20039;-76
2023/01/11 01:30:00;;;;;;;17.65;7.35;;;;;;;;;;5080335;28;20006;-72
2023/01/11 01:32:26;;;;;;;11.65;6.53;;;;;;;;;;5066032;28;20043;-74
2023/01/11 01:34:52;;;;;;;17.13;6.20;;;;;;;;;;5062342;28;20033;-73
2023/01/11 01:37:18;;;;;;;15.82;5.93;;;;;;;;;;5064116;28;20032;-73
2023/01/11 01:39:44;;;;;;;12.20;5.85;;;;;;;;;;5059858;28;20459;-73
2023/01/11 01:42:14;;;;;;;13.77;6.15;;;;;;;;;;5063737;28;20032;-73
2023/01/11 01:45:06;;;;;;;13.95;6.00;;;;;;;;;;5056614;28;20125;-73
2023/01/11 01:47:32;;;;;;;13.50;6.18;;;;;;;;;;5048419;28;20479;-72
2023/01/11 01:50:01;;;;;;;19.92;6.88;;;;;;;;;;5050575;28;20435;-73
2023/01/11 01:52:28;;;;;;;10.85;5.50;;;;;;;;;;5060060;28;20107;-73
2023/01/11 01:54:57;;;;;;;13.10;5.70;;;;;;;;;;5072052;28;20032;-72
2023/01/11 01:57:26;;;;;;;13.45;5.55;;;;;;;;;;5071689;28;20059;-74
2023/01/11 01:59:52;;;;;;;12.20;5.38;;;;;;;;;;5072039;28;20099;-73
2023/01/11 02:02:20;;;;;;;13.75;5.40;;;;;;;;;;5053780;28;20086;-73
2023/01/11 02:04:47;;;;;;;15.60;5.43;;;;;;;;;;5071690;28;20506;-73
2023/01/11 02:07:15;;;;;;;8.80;4.78;;;;;;;;;;5071326;28;20386;-74
2023/01/11 02:09:44;;;;;;;16.15;5.95;;;;;;;;;;5071396;22;20067;-75
2023/01/11 02:12:10;;;;;;;16.30;5.55;;;;;;;;;;5044974;28;20057;-75
2023/01/11 02:14:37;;;;;;;18.33;5.95;;;;;;;;;;5044054;28;20033;-76
2023/01/11 02:17:03;;;;;;;14.15;6.05;;;;;;;;;;5039331;28;20037;-75
2023/01/11 02:19:48;;;;;;;14.18;6.18;;;;;;;;;;5044877;28;20026;-76
2023/01/11 02:22:17;;;;;;;11.45;5.57;;;;;;;;;;5043564;28;20033;-75
2023/01/11 02:24:49;;;;;;;14.63;6.40;;;;;;;;;;5042668;28;20033;-75
2023/01/11 02:27:35;;;;;;;16.38;6.65;;;;;;;;;;5028112;28;20040;-75
2023/01/11 02:30:20;;;;;;;15.73;5.85;;;;;;;;;;5025807;28;20026;-75
2023/01/11 02:33:05;;;;;;;15.70;6.38;;;;;;;;;;5031792;28;20084;-75
2023/01/11 02:35:38;;;;;;;17.40;6.40;;;;;;;;;;5030248;28;20049;-75
2023/01/11 02:38:04;;;;;;;13.10;5.80;;;;;;;;;;5031567;28;20022;-75
2023/01/11 02:40:48;;;;;;;12.43;5.95;;;;;;;;;;5034177;28;20025;-75
2023/01/11 02:46:28;;;;;;;11.57;5.32;;;;;;;;;;5031366;28;20052;-75
2023/01/11 02:48:59;;;;;;;12.35;6.13;;;;;;;;;;5030893;28;20068;-75
2023/01/11 02:51:35;;;;;;;14.98;5.85;;;;;;;;;;5023278;28;20017;-76
2023/01/11 02:54:02;;;;;;;15.32;6.47;;;;;;;;;;5030060;28;20041;-76
2023/01/11 02:56:30;;;;;;;12.57;6.05;;;;;;;;;;5031344;28;20033;-76
2023/01/11 02:58:57;;;;;;;15.55;5.70;;;;;;;;;;5031027;28;20104;-76
2023/01/11 03:01:24;;;;;;;16.30;5.57;;;;;;;;;;5031286;28;20057;-75
2023/01/11 03:03:51;;;;;;;13.82;5.75;;;;;;;;;;5031229;28;20065;-75
2023/01/11 03:06:17;;;;;;;16.67;5.90;;;;;;;;;;5030935;28;20051;-75
2023/01/11 03:09:01;;;;;;;9.15;5.22;;;;;;;;;;5030744;28;20025;-75
2023/01/11 03:14:32;;;;;;;15.07;5.40;;;;;;;;;;5031020;28;20040;-75
2023/01/11 03:17:01;;;;;;;13.43;5.15;;;;;;;;;;5035041;28;20022;-73
2023/01/11 03:19:34;;;;;;;16.27;4.90;;;;;;;;;;5033674;28;20044;-75
2023/01/11 03:22:19;;;;;;;13.13;5.50;;;;;;;;;;5034877;28;20509;-75
2023/01/11 03:24:47;;;;;;;15.77;5.57;;;;;;;;;;5034860;28;20032;-75
2023/01/11 03:27:19;;;;;;;8.73;5.05;;;;;;;;;;5029962;28;20652;-75
2023/01/11 03:29:49;;;;;;;12.85;5.13;;;;;;;;;;5026624;28;20026;-75
2023/01/11 03:32:20;;;;;;;11.00;5.25;;;;;;;;;;5034845;28;20391;-76
2023/01/11 03:35:05;;;;;;;10.73;4.85;;;;;;;;;;5033472;28;20550;-76
2023/01/11 03:37:31;;;;;;;12.52;5.28;;;;;;;;;;5034314;28;20033;-76
2023/01/11 03:40:03;;;;;;;13.90;5.13;;;;;;;;;;5033270;28;20397;-75
2023/01/11 03:42:30;;;;;;;15.02;4.95;;;;;;;;;;5034509;28;20083;-75
2023/01/11 03:44:57;;;;;;;11.13;4.55;;;;;;;;;;5034207;28;20549;-75
2023/01/11 03:47:25;;;;;;;13.60;5.10;;;;;;;;;;5023850;28;20033;-76
2023/01/11 03:49:56;;;;;;;10.30;4.55;;;;;;;;;;5026332;28;20022;-75
2023/01/11 03:52:24;;;;;;;15.45;4.65;;;;;;;;;;5028030;28;20079;-75
2023/01/11 03:54:50;;;;;;;11.23;4.43;;;;;;;;;;5034382;28;20446;-75
2023/01/11 03:57:21;;;;;;;9.75;4.57;;;;;;;;;;5034084;28;20074;-75
2023/01/11 03:59:48;;;;;;;10.93;4.50;;;;;;;;;;5034350;28;20477;-76
2023/01/11 04:02:16;;;;;;;13.05;5.15;;;;;;;;;;5034058;28;20060;-75
2023/01/11 04:04:42;;;;;;;9.70;4.57;;;;;;;;;;5034560;28;20032;-75
2023/01/11 04:07:08;;;;;;;7.55;3.72;;;;;;;;;;5033781;28;20017;-75
2023/01/11 04:09:34;;;;;;;8.63;3.97;;;;;;;;;;5034132;28;20160;-76
2023/01/11 04:12:00;;;;;;;8.13;3.55;;;;;;;;;;5032805;28;20191;-75
2023/01/11 04:14:26;;;;;;;7.95;3.92;;;;;;;;;;5034022;28;20032;-75
2023/01/11 04:16:52;;;;;;;8.73;3.63;;;;;;;;;;5032574;28;20033;-76
2023/01/11 04:19:18;;;;;;;12.55;4.57;;;;;;;;;;5033319;28;20026;-75
2023/01/11 04:21:44;;;;;;;9.60;3.75;;;;;;;;;;5033922;28;20022;-75
2023/01/11 04:24:12;;;;;;;13.07;4.38;;;;;;;;;;5032419;28;20025;-76
2023/01/11 04:26:38;;;;;;;10.35;3.70;;;;;;;;;;5028739;28;20120;-76
2023/01/11 04:29:04;;;;;;;9.57;3.10;;;;;;;;;;5025546;28;20100;-76
2023/01/11 04:31:30;;;;;;;10.90;3.22;;;;;;;;;;5032427;28;20433;-77
2023/01/11 04:33:56;;;;;;;7.72;3.50;;;;;;;;;;5032319;28;20030;-75
2023/01/11 04:36:22;;;;;;;6.55;3.58;;;;;;;;;;5033440;28;20363;-75
2023/01/11 04:38:48;;;;;;;9.40;3.35;;;;;;;;;;5031564;28;20033;-75
2023/01/11 04:43:59;;;;;;;8.15;3.30;;;;;;;;;;5033259;28;20068;-74
2023/01/11 04:46:25;;;;;;;8.25;3.42;;;;;;;;;;5033365;28;20021;-75
2023/01/11 04:48:51;;;;;;;10.70;3.92;;;;;;;;;;5032901;28;20103;-76
2023/01/11 04:51:17;;;;;;;7.20;3.00;;;;;;;;;;5025598;28;20565;-76
2023/01/11 04:53:43;;;;;;;9.23;3.10;;;;;;;;;;5032919;28;20025;-76
2023/01/11 04:56:10;;;;;;;5.97;3.53;;;;;;;;;;5032752;28;20079;-75
2023/01/11 04:58:37;;;;;;;11.32;3.47;;;;;;;;;;5033491;28;20032;-76
2023/01/11 05:01:10;;;;;;;13.23;3.50;;;;;;;;;;5032110;28;20026;-76
2023/01/11 05:03:36;;;;;;;9.57;3.22;;;;;;;;;;5033256;28;20060;-75
2023/01/11 05:06:02;;;;;;;7.97;3.67;;;;;;;;;;5033336;28;20025;-76
2023/01/11 05:08:29;;;;;;;9.43;3.63;;;;;;;;;;5031401;28;20104;-75
2023/01/11 05:10:56;;;;;;;15.55;4.68;;;;;;;;;;5033161;28;20529;-75
2023/01/11 05:13:40;;;;;;;8.32;4.07;;;;;;;;;;5032811;28;20100;-75
2023/01/11 05:16:06;;;;;;;10.00;4.13;;;;;;;;;;5032979;28;20025;-76
2023/01/11 05:18:32;;;;;;;14.07;3.88;;;;;;;;;;5032679;28;20017;-75
2023/01/11 05:20:58;;;;;;;9.07;3.92;;;;;;;;;;5032629;28;20442;-75
2023/01/11 05:23:24;;;;;;;11.25;4.28;;;;;;;;;;5031145;28;20075;-74
2023/01/11 05:25:50;;;;;;;7.32;4.03;;;;;;;;;;5032469;28;20040;-75
2023/01/11 05:28:16;;;;;;;11.40;4.38;;;;;;;;;;5024648;28;20158;-75
2023/01/11 05:30:42;;;;;;;11.55;5.55;;;;;;;;;;5028898;28;20021;-75
2023/01/11 05:33:08;;;;;;;9.27;4.18;;;;;;;;;;5032310;28;20132;-75
2023/01/11 05:35:34;;;;;;;10.65;4.32;;;;;;;;;;5032267;28;20029;-76
2023/01/11 05:38:00;;;;;;;10.40;3.90;;;;;;;;;;5030675;28;20061;-75
2023/01/11 05:40:26;;;;;;;8.43;4.28;;;;;;;;;;5032777;28;20114;-75
2023/01/11 05:42:52;;;;;;;12.82;4.65;;;;;;;;;;5032383;28;20499;-75
2023/01/11 05:45:27;;;;;;;9.10;3.72;;;;;;;;;;5030887;28;20018;-75
2023/01/11 05:47:54;;;;;;;10.52;4.18;;;;;;;;;;5032458;28;20033;-76
2023/01/11 05:50:20;;;;;;;13.65;4.88;;;;;;;;;;5027408;28;20780;-76
2023/01/11 05:52:46;;;;;;;11.23;4.28;;;;;;;;;;5028834;28;20030;-76
2023/01/11 05:55:12;;;;;;;8.98;3.90;;;;;;;;;;5030588;28;20376;-75
2023/01/11 05:57:41;;;;;;;10.65;4.35;;;;;;;;;;5031433;28;20024;-75
2023/01/11 06:00:08;;;;;;;6.78;4.05;;;;;;;;;;5032028;28;20167;-74
2023/01/11 06:02:34;;;;;;;12.50;5.05;;;;;;;;;;5032256;28;20590;-75
2023/01/11 06:05:00;;;;;;;11.13;4.20;;;;;;;;;;5020764;28;20036;-76
2023/01/11 06:07:26;;;;;;;7.82;3.97;;;;;;;;;;5031413;28;20395;-75
2023/01/11 06:09:52;;;;;;;13.40;4.25;;;;;;;;;;5031918;28;20088;-76
2023/01/11 06:12:18;;;;;;;8.77;4.45;;;;;;;;;;5032177;28;20029;-75
2023/01/11 06:14:44;;;;;;;9.02;4.18;;;;;;;;;;5031925;28;20538;-76
2023/01/11 06:17:10;;;;;;;13.90;3.88;;;;;;;;;;5031477;28;20123;-75
2023/01/11 06:19:36;;;;;;;6.25;3.40;;;;;;;;;;5031802;28;20496;-76
2023/01/11 06:22:02;;;;;;;11.18;3.80;;;;;;;;;;5031439;28;20064;-75
2023/01/11 06:24:28;;;;;;;7.95;3.58;;;;;;;;;;5031559;28;20105;-75
2023/01/11 06:26:54;;;;;;;9.98;3.20;;;;;;;;;;5023557;28;20026;-75
2023/01/11 06:29:20;;;;;;;10.05;3.85;;;;;;;;;;5024549;28;20021;-75
2023/01/11 06:31:46;;;;;;;10.40;3.70;;;;;;;;;;5031795;28;20091;-75
2023/01/11 06:34:18;;;;;;;10.88;3.80;;;;;;;;;;5032354;28;20203;-74
2023/01/11 06:36:44;;;;;;;6.60;3.05;;;;;;;;;;5031716;28;20340;-74
2023/01/11 06:39:10;;;;;;;8.65;3.13;;;;;;;;;;5029893;28;20026;-76
2023/01/11 06:41:36;;;;;;;8.82;3.72;;;;;;;;;;5031293;28;20017;-75
2023/01/11 06:44:02;;;;;;;8.75;3.25;;;;;;;;;;5031198;28;20079;-76
2023/01/11 06:46:28;;;;;;;8.68;3.88;;;;;;;;;;5031288;28;20530;-76
2023/01/11 06:48:54;;;;;;;10.77;3.28;;;;;;;;;;5030819;28;20029;-76
2023/01/11 06:51:20;;;;;;;7.50;3.67;;;;;;;;;;5018415;28;20029;-75
2023/01/11 06:53:46;;;;;;;7.13;2.80;;;;;;;;;;5031035;28;20029;-75
2023/01/11 06:56:14;;;;;;;7.47;3.30;;;;;;;;;;5031045;28;20026;-76
2023/01/11 06:58:40;;;;;;;11.38;3.30;;;;;;;;;;5029389;28;20549;-75
2023/01/11 07:01:06;;;;;;;8.52;3.55;;;;;;;;;;5031036;28;20475;-74
2023/01/11 07:03:32;;;;;;;8.02;3.15;;;;;;;;;;5029536;28;20017;-75
2023/01/11 07:05:58;;;;;;;9.60;3.67;;;;;;;;;;5031163;28;20041;-75
2023/01/11 07:08:25;;;;;;;7.45;3.03;;;;;;;;;;5030534;28;20033;-75
2023/01/11 07:10:51;;;;;;;7.00;3.30;;;;;;;;;;5030921;28;20402;-75
2023/01/11 07:13:18;;;;;;;9.32;3.60;;;;;;;;;;5031195;28;20439;-75
2023/01/11 07:15:44;;;;;;;6.28;2.88;;;;;;;;;;5031425;28;20017;-74
2023/01/11 07:18:11;;;;;;;6.80;2.92;;;;;;;;;;5020196;28;20034;-74
2023/01/11 07:20:37;;;;;;;10.80;4.15;;;;;;;;;;5010246;28;20026;-75
2023/01/11 07:23:03;;;;;;;10.57;4.28;;;;;;;;;;5015931;28;20022;-75
2023/01/11 07:25:29;;;;;;;11.00;4.45;;;;;;;;;;5019195;28;20018;-75
2023/01/11 07:28:00;;;;;;;6.32;3.53;;;;;;;;;;5027256;28;20026;-75
2023/01/11 07:30:27;;;;;;;5.30;3.05;;;;;;;;;;5024706;28;20488;-74
2023/01/11 07:32:53;;;;;;;6.28;3.13;;;;;;;;;;5030590;28;20511;-75
2023/01/11 07:35:19;;;;;;;10.55;3.25;;;;;;;;;;5030069;28;20028;-75
2023/01/11 07:37:45;;;;;;;11.25;4.22;;;;;;;;;;5024935;28;20055;-75
2023/01/11 07:40:12;;;;;;;9.23;4.20;;;;;;;;;;5030282;28;20033;-76
2023/01/11 07:45:22;;;;;;;8.55;3.83;;;;;;;;;;5028117;28;20037;-74
2023/01/11 07:47:50;;;;;;;8.43;3.67;;;;;;;;;;5028973;28;20026;-75
2023/01/11 07:50:16;;;;;;;14.63;3.95;;;;;;;;;;5024571;28;20208;-75
2023/01/11 07:52:49;;;;;;;6.35;3.28;;;;;;;;;;5026342;28;20022;-76
2023/01/11 07:55:15;;;;;;;8.25;3.53;;;;;;;;;;5026527;28;20495;-76
2023/01/11 07:57:41;;;;;;;7.40;3.33;;;;;;;;;;5029516;28;20082;-76
2023/01/11 08:00:08;;;;;;;7.72;3.58;;;;;;;;;;5030298;28;20112;-76
2023/01/11 08:02:34;;;;;;;7.57;3.67;;;;;;;;;;5033313;28;20028;-75
2023/01/11 08:05:00;;;;;;;6.90;3.28;;;;;;;;;;5033714;28;20387;-76
2023/01/11 08:07:26;;;;;;;9.88;3.70;;;;;;;;;;5032956;28;20025;-76
2023/01/11 08:09:52;;;;;;;5.50;3.72;;;;;;;;;;5083527;22;20045;-73
2023/01/11 08:15:03;;;;;;;7.88;3.40;;;;;;;;;;5071527;28;20089;-73
2023/01/11 08:17:29;;;;;;;6.20;3.45;;;;;;;;;;5060247;28;20051;-73
2023/01/11 08:19:55;;;;;;;5.53;3.03;;;;;;;;;;5073893;28;20025;-73
2023/01/11 08:22:21;;;;;;;7.88;3.20;;;;;;;;;;5073726;28;20074;-74
2023/01/11 08:24:47;;;;;;;5.30;3.28;;;;;;;;;;5073452;28;20099;-74
2023/01/11 08:27:13;;;;;;;8.30;3.08;;;;;;;;;;5069534;28;20049;-74
2023/01/11 08:29:42;;;;;;;9.00;3.60;;;;;;;;;;5049132;28;20036;-75
2023/01/11 08:32:12;;;;;;;10.60;3.83;;;;;;;;;;5053907;28;20112;-75
2023/01/11 08:34:38;;;;;;;6.70;3.50;;;;;;;;;;5053830;28;20017;-73
2023/01/11 08:37:05;;;;;;;6.68;3.35;;;;;;;;;;5035157;28;20033;-72
2023/01/11 08:39:31;;;;;;;8.77;4.30;;;;;;;;;;5053439;28;20483;-75
2023/01/11 08:42:01;;;;;;;8.60;3.55;;;;;;;;;;5063411;28;20552;-72
2023/01/11 08:44:28;;;;;;;12.85;3.78;;;;;;;;;;5073103;28;20048;-75
2023/01/11 08:46:54;;;;;;;7.97;3.88;;;;;;;;;;5053453;28;20021;-75
2023/01/11 08:49:19;;;;;;;9.80;3.78;;;;;;;;;;5066449;28;20486;-76
2023/01/11 08:51:45;;;;;;;10.43;4.15;;;;;;;;;;5052262;28;20036;-73
2023/01/11 08:54:13;;;;;;;7.00;3.47;;;;;;;;;;5054161;28;20032;-74
2023/01/11 08:56:39;;;;;;;8.45;3.83;;;;;;;;;;5055398;28;20024;-75
2023/01/11 08:59:05;;;;;;;12.50;3.70;;;;;;;;;;5064410;28;20024;-73
2023/01/11 09:01:32;;;;;;;8.57;3.50;;;;;;;;;;5087250;28;20024;-74
2023/01/11 09:03:58;;;;;;;9.13;4.05;;;;;;;;;;5073952;28;20037;-75
2023/01/11 09:06:24;;;;;;;8.45;3.28;;;;;;;;;;5063437;28;20028;-75
2023/01/11 09:08:50;;;;;;;8.98;4.35;;;;;;;;;;5061112;28;20056;-74
2023/01/11 09:14:02;;;;;;;7.00;4.05;;;;;;;;;;5050293;28;20055;-74
2023/01/11 09:16:28;;;;;;;6.13;3.60;;;;;;;;;;5042725;28;20487;-74
2023/01/11 09:18:54;;;;;;;7.10;3.40;;;;;;;;;;5017492;28;20446;-74
2023/01/11 09:21:20;;;;;;;7.97;3.58;;;;;;;;;;5036189;28;20028;-74
2023/01/11 09:23:46;;;;;;;9.90;4.13;;;;;;;;;;5051550;28;20067;-73
2023/01/11 09:26:12;;;;;;;8.82;3.47;;;;;;;;;;5051813;28;20029;-73
2023/01/11 09:28:38;;;;;;;7.28;3.70;;;;;;;;;;5046674;28;20036;-74
2023/01/11 09:31:05;;;;;;;8.48;3.90;;;;;;;;;;5052190;28;20039;-73
2023/01/11 09:33:33;;;;;;;10.82;4.32;;;;;;;;;;5051781;28;20491;-74
2023/01/11 09:36:01;;;;;;;6.25;3.53;;;;;;;;;;5052920;28;20028;-73
2023/01/11 09:38:28;;;;;;;9.75;3.63;;;;;;;;;;5051215;28;20029;-73
2023/01/11 09:41:03;;;;;;;9.90;4.03;;;;;;;;;;5052217;28;20097;-73
2023/01/11 09:43:30;;;;;;;10.30;4.25;;;;;;;;;;5051706;28;20078;-73
2023/01/11 09:46:01;;;;;;;10.68;3.63;;;;;;;;;;5033843;28;20025;-73
2023/01/11 09:48:29;;;;;;;5.70;3.30;;;;;;;;;;5050846;28;20044;-71
2023/01/11 09:50:56;;;;;;;5.72;3.03;;;;;;;;;;5027769;28;20017;-73
2023/01/11 09:53:30;;;;;;;7.15;3.75;;;;;;;;;;5072054;28;20017;-72
2023/01/11 09:55:58;;;;;;;5.68;3.67;;;;;;;;;;5072254;28;20029;-73
2023/01/11 09:58:31;;;;;;;7.53;3.65;;;;;;;;;;5070856;28;20033;-73
2023/01/11 10:01:09;;;;;;;7.47;3.65;;;;;;;;;;5071362;28;20028;-73
2023/01/11 10:03:57;;;;;;;6.45;3.45;;;;;;;;;;5071110;28;20020;-70
2023/01/11 10:06:41;;;;;;;9.48;4.07;;;;;;;;;;5071348;28;20487;-74
2023/01/11 10:09:16;;;;;;;9.80;4.03;;;;;;;;;;5070087;28;20142;-73
2023/01/11 10:11:54;;;;;;;8.65;3.92;;;;;;;;;;5053949;28;20103;-72
2023/01/11 10:14:37;;;;;;;11.00;3.80;;;;;;;;;;5071402;28;20158;-73
2023/01/11 10:17:03;;;;;;;6.38;3.67;;;;;;;;;;5064703;28;20016;-71
2023/01/11 10:19:39;;;;;;;5.72;3.42;;;;;;;;;;5050264;28;20044;-74
2023/01/11 10:22:09;;;;;;;6.28;3.58;;;;;;;;;;5061879;28;20482;-73
2023/01/11 10:24:44;;;;;;;5.97;3.50;;;;;;;;;;5053848;28;20037;-73
2023/01/11 10:27:20;;;;;;;7.07;3.47;;;;;;;;;;5050368;28;20486;-71
2023/01/11 10:33:33;;;;;;;4.90;3.38;;;;;;;;;;5050306;28;20089;-74
2023/01/11 10:41:20;;;;;;;9.07;3.30;;;;;;;;;;5051809;28;20068;-74
2023/01/11 10:43:48;;;;;;;7.07;4.30;;;;;;;;;;5060488;28;20029;-73
2023/01/11 10:46:19;;;;;;;12.73;4.32;;;;;;;;;;5070823;28;20016;-73
2023/01/11 10:48:46;;;;;;;7.93;4.18;;;;;;;;;;5069210;28;20017;-73
2023/01/11 10:51:35;;;;;;;7.03;4.40;;;;;;;;;;5046630;28;20023;-72
2023/01/11 10:54:11;;;;;;;7.70;4.20;;;;;;;;;;5070839;28;20505;-73
2023/01/11 10:56:46;;;;;;;6.68;4.25;;;;;;;;;;5052607;28;20028;-73
2023/01/11 10:59:33;;;;;;;6.25;4.18;;;;;;;;;;5062787;28;20021;-73
2023/01/11 11:02:14;;;;;;;5.63;3.28;;;;;;;;;;5042365;28;20071;-74
2023/01/11 11:04:43;;;;;;;6.72;3.13;;;;;;;;;;5054452;28;20487;-74
2023/01/11 11:07:40;;;;;;;3.30;2.40;;;;;;;;;;5045532;28;20075;-73
2023/01/11 11:10:25;;;;;;;4.35;3.17;;;;;;;;;;5003525;28;20072;-73
2023/01/11 11:13:10;;;;;;;5.28;3.08;;;;;;;;;;5056894;28;20536;-75
2023/01/11 11:15:50;;;;;;;5.55;2.50;;;;;;;;;;5056663;28;20021;-75
2023/01/11 11:18:16;;;;;;;3.90;1.63;;;;;;;;;;5050133;28;20059;-74
2023/01/11 11:20:44;;;;;;;3.25;1.80;;;;;;;;;;5039556;28;20025;-72
2023/01/11 11:23:14;;;;;;;2.03;1.25;;;;;;;;;;5070818;28;20029;-73
2023/01/11 11:25:41;;;;;;;1.38;1.10;;;;;;;;;;5063436;28;20110;-75
2023/01/11 11:28:23;;;;;;;2.78;1.45;;;;;;;;;;5046357;28;20371;-75
2023/01/11 11:30:51;;;;;;;4.60;2.63;;;;;;;;;;5050843;28;20111;-74
2023/01/11 11:33:21;;;;;;;4.10;2.60;;;;;;;;;;5050766;28;20025;-73
2023/01/11 11:35:57;;;;;;;3.73;2.90;;;;;;;;;;5060560;28;20024;-73
2023/01/11 11:38:31;;;;;;;4.15;2.33;;;;;;;;;;5074615;28;20274;-74
2023/01/11 11:40:57;;;;;;;3.25;2.80;;;;;;;;;;5074696;28;20020;-74
2023/01/11 11:43:24;;;;;;;3.33;3.03;;;;;;;;;;5074472;28;20371;-74
2023/01/11 11:45:51;;;;;;;3.30;2.30;;;;;;;;;;5072736;28;20025;-74
2023/01/11 11:48:17;;;;;;;4.75;2.78;;;;;;;;;;5062859;28;20485;-72
2023/01/11 11:50:44;;;;;;;3.35;2.70;;;;;;;;;;5043869;28;20024;-75
2023/01/11 11:53:23;;;;;;;3.95;2.50;;;;;;;;;;5059703;28;20029;-75
2023/01/11 11:55:50;;;;;;;4.20;2.20;;;;;;;;;;5035826;28;20029;-77
2023/01/11 11:58:18;;;;;;;2.72;2.47;;;;;;;;;;5060781;28;20024;-79
2023/01/11 12:00:47;;;;;;;5.70;2.10;;;;;;;;;;5077207;28;20033;-76
2023/01/11 12:03:16;;;;;;;3.20;2.20;;;;;;;;;;5079433;28;20029;-76
2023/01/11 12:05:54;;;;;;;3.38;2.58;;;;;;;;;;5075787;28;20096;-74
2023/01/11 12:08:20;;;;;;;3.45;2.30;;;;;;;;;;5054927;28;20059;-74
2023/01/11 12:10:52;;;;;;;2.97;1.83;;;;;;;;;;5055091;28;20070;-75
2023/01/11 12:13:35;;;;;;;3.10;2.05;;;;;;;;;;5054731;28;20029;-75
2023/01/11 12:16:03;;;;;;;2.05;1.85;;;;;;;;;;5054665;28;20025;-75
2023/01/11 12:18:41;;;;;;;5.70;2.40;;;;;;;;;;5053981;28;20032;-74
2023/01/11 12:21:21;;;;;;;3.75;2.03;;;;;;;;;;5054695;28;20380;-75
2023/01/11 12:23:47;;;;;;;2.63;1.92;;;;;;;;;;5023802;28;20024;-75
2023/01/11 12:26:20;;;;;;;3.10;2.00;;;;;;;;;;5052939;28;20449;-75
2023/01/11 12:28:52;;;;;;;2.08;1.75;;;;;;;;;;5057886;28;20040;-75
2023/01/11 12:31:30;;;;;;;3.45;1.85;;;;;;;;;;5035989;28;20045;-74
2023/01/11 12:34:02;;;;;;;2.08;1.70;;;;;;;;;;5053987;28;20428;-74
2023/01/11 12:36:47;;;;;;;4.82;1.75;;;;;;;;;;5053770;28;20087;-74
2023/01/11 12:39:21;;;;;;;2.75;2.13;;;;;;;;;;5053506;28;20032;-74
2023/01/11 12:42:05;;;;;;;3.53;2.85;;;;;;;;;;5054073;28;20029;-74
2023/01/11 12:44:47;;;;;;;7.60;3.67;;;;;;;;;;5053996;28;20028;-73
2023/01/11 12:47:13;;;;;;;3.05;2.75;;;;;;;;;;5034866;28;20036;-74
2023/01/11 12:49:45;;;;;;;3.83;2.58;;;;;;;;;;5035204;28;20033;-74
2023/01/11 12:52:11;;;;;;;7.85;2.42;;;;;;;;;;5054167;28;20398;-73
2023/01/11 12:54:40;;;;;;;4.82;2.58;;;;;;;;;;5053918;28;20021;-74
2023/01/11 12:57:30;;;;;;;10.57;2.95;;;;;;;;;;5053400;28;20097;-72
2023/01/11 13:00:05;;;;;;;4.57;3.13;;;;;;;;;;5053448;28;20040;-73
2023/01/11 13:02:50;;;;;;;8.82;3.50;;;;;;;;;;5053364;28;20032;-73
2023/01/11 13:05:35;;;;;;;3.97;2.55;;;;;;;;;;5035506;28;20075;-73
2023/01/11 13:08:15;;;;;;;5.80;2.67;;;;;;;;;;5052982;28;20444;-73
2023/01/11 13:11:03;;;;;;;5.32;2.67;;;;;;;;;;5053401;28;20083;-73
2023/01/11 13:13:36;;;;;;;6.05;3.20;;;;;;;;;;5035628;28;20501;-74
2023/01/11 13:16:15;;;;;;;4.10;2.92;;;;;;;;;;5035524;28;20483;-73
2023/01/11 13:18:57;;;;;;;4.18;2.72;;;;;;;;;;5048995;28;20426;-74
2023/01/11 13:21:36;;;;;;;4.35;3.13;;;;;;;;;;5053271;28;20112;-73
2023/01/11 13:24:05;;;;;;;7.28;2.60;;;;;;;;;;5045969;28;20017;-73
2023/01/11 13:26:39;;;;;;;7.50;2.28;;;;;;;;;;5033854;28;20025;-73
2023/01/11 13:29:05;;;;;;;3.17;2.13;;;;;;;;;;5032401;28;20051;-74
2023/01/11 13:31:35;;;;;;;3.28;2.10;;;;;;;;;;5051141;28;20498;-72
2023/01/11 13:34:04;;;;;;;5.03;2.45;;;;;;;;;;5052494;28;20021;-73
2023/01/11 13:36:33;;;;;;;1.60;1.20;;;;;;;;;;5047766;28;20024;-73
2023/01/11 13:39:07;;;;;;;1.63;1.10;;;;;;;;;;5039862;28;20151;-74
2023/01/11 13:41:37;;;;;;;0.98;0.88;;;;;;;;;;5028382;28;20036;-73
2023/01/11 13:44:09;;;;;;;1.48;1.38;;;;;;;;;;5052159;28;20025;-73
2023/01/11 13:46:54;;;;;;;1.20;1.00;;;;;;;;;;5038986;28;20024;-74
2023/01/11 13:49:34;;;;;;;1.50;0.88;;;;;;;;;;5051154;28;20013;-75
2023/01/11 13:52:03;;;;;;;1.65;0.98;;;;;;;;;;5053675;28;20063;-73
2023/01/11 13:54:41;;;;;;;1.20;1.00;;;;;;;;;;5052488;28;20017;-74
2023/01/11 13:57:12;;;;;;;1.30;0.95;;;;;;;;;;5035522;28;20032;-75
2023/01/11 13:59:46;;;;;;;1.08;0.85;;;;;;;;;;5052171;28;20047;-75
2023/01/11 14:02:15;;;;;;;1.98;0.93;;;;;;;;;;5051537;28;20029;-75
2023/01/11 14:04:41;;;;;;;3.75;1.60;;;;;;;;;;5051593;28;20541;-74
2023/01/11 14:07:20;;;;;;;1.00;0.80;;;;;;;;;;5051762;28;20017;-72
2023/01/11 14:09:55;;;;;;;1.20;1.10;;;;;;;;;;5052666;28;20494;-75
2023/01/11 14:12:40;;;;;;;3.97;2.60;;;;;;;;;;5051447;28;20035;-74
2023/01/11 14:15:18;;;;;;;1.60;1.17;;;;;;;;;;5051420;28;20425;-74
2023/01/11 14:17:44;;;;;;;2.08;1.35;;;;;;;;;;5051383;28;20493;-74
2023/01/11 14:20:13;;;;;;;1.63;1.13;;;;;;;;;;5051337;28;20111;-74
2023/01/11 14:22:58;;;;;;;1.30;1.10;;;;;;;;;;5051077;28;20029;-75
2023/01/11 14:25:26;;;;;;;1.80;1.30;;;;;;;;;;5033455;28;20029;-75
2023/01/11 14:28:02;;;;;;;1.38;1.10;;;;;;;;;;5051164;28;20025;-74
2023/01/11 14:30:31;;;;;;;1.63;1.23;;;;;;;;;;5050953;28;20024;-74
2023/01/11 14:33:06;;;;;;;1.70;1.08;;;;;;;;;;5051186;28;20450;-75
2023/01/11 14:35:32;;;;;;;1.48;1.30;;;;;;;;;;5032895;28;20486;-73
2023/01/11 14:38:01;;;;;;;1.60;1.05;;;;;;;;;;5050664;28;20051;-73
2023/01/11 14:40:42;;;;;;;4.05;1.48;;;;;;;;;;5051488;28;20066;-76
2023/01/11 14:43:11;;;;;;;2.05;1.33;;;;;;;;;;5050877;28;20024;-75
2023/01/11 14:45:48;;;;;;;1.50;1.02;;;;;;;;;;5050808;28;20032;-75
2023/01/11 14:48:17;;;;;;;0.93;0.90;;;;;;;;;;5050422;28;20391;-72
2023/01/11 14:51:09;;;;;;;2.42;1.48;;;;;;;;;;5033037;28;20075;-74
2023/01/11 14:53:38;;;;;;;2.10;1.08;;;;;;;;;;5020214;28;20039;-73
2023/01/11 14:56:04;;;;;;;1.48;1.30;;;;;;;;;;5032712;28;20025;-74
2023/01/11 14:58:31;;;;;;;1.58;1.00;;;;;;;;;;5050431;28;20100;-74
2023/01/11 15:00:57;;;;;;;1.20;1.00;;;;;;;;;;5050607;28;20049;-74
2023/01/11 15:03:23;;;;;;;1.85;1.20;;;;;;;;;;5032672;28;20135;-74
2023/01/11 15:05:49;;;;;;;2.15;1.58;;;;;;;;;;5051092;28;20059;-73
2023/01/11 15:08:15;;;;;;;1.67;0.93;;;;;;;;;;5050381;28;20116;-74
2023/01/11 15:10:50;;;;;;;1.83;1.08;;;;;;;;;;5052268;28;20024;-74
2023/01/11 15:13:22;;;;;;;1.55;1.40;;;;;;;;;;5057442;28;20063;-75
2023/01/11 15:18:40;;;;;;;2.05;1.50;;;;;;;;;;5056772;28;19972;-76
2023/01/11 15:21:07;;;;;;;2.38;1.52;;;;;;;;;;5057032;28;20468;-73
2023/01/11 15:23:35;;;;;;;1.73;1.58;;;;;;;;;;5056825;28;20017;-74
2023/01/11 15:26:06;;;;;;;2.42;1.50;;;;;;;;;;5056352;28;20032;-73
2023/01/11 15:28:32;;;;;;;;;;;;;;;;;;5057334;28;20470;-73
2023/01/11 15:30:58;;;;;;;1.65;1.50;;;;;;;;;;5057068;28;19905;-73